sensor_id;sensor_type;location;lat;lon;timestamp;pressure;altitude;pressure_sealevel;temperature;humidity
52935;BME280;38802;50.198;19.796;2022-07-24T00:01:31;96352.89;;;18.20;81.16
52935;BME280;38802;50.198;19.796;2022-07-24T00:03:58;96351.67;;;18.19;81.39
52935;BME280;38802;50.198;19.796;2022-07-24T00:06:24;96352.51;;;18.18;81.29
52935;BME280;38802;50.198;19.796;2022-07-24T00:08:51;96348.09;;;18.17;81.46
52935;BME280;38802;50.198;19.796;2022-07-24T00:11:18;96342.98;;;18.15;81.60
52935;BME280;38802;50.198;19.796;2022-07-24T00:13:45;96346.59;;;18.13;81.54
52935;BME280;38802;50.198;19.796;2022-07-24T00:16:12;96345.94;;;18.11;81.67
52935;BME280;38802;50.198;19.796;2022-07-24T00:18:39;96353.16;;;18.09;81.87
52935;BME280;38802;50.198;19.796;2022-07-24T00:21:06;96348.79;;;18.08;81.82
52935;BME280;38802;50.198;19.796;2022-07-24T00:23:34;96349.71;;;18.07;82.12
52935;BME280;38802;50.198;19.796;2022-07-24T00:26:01;96354.09;;;18.07;82.30
52935;BME280;38802;50.198;19.796;2022-07-24T00:28:28;96347.23;;;18.08;82.57
52935;BME280;38802;50.198;19.796;2022-07-24T00:30:54;96346.48;;;18.08;82.60
52935;BME280;38802;50.198;19.796;2022-07-24T00:33:21;96342.05;;;18.10;83.12
52935;BME280;38802;50.198;19.796;2022-07-24T00:35:48;96342.98;;;18.11;83.00
52935;BME280;38802;50.198;19.796;2022-07-24T00:38:15;96338.64;;;18.12;83.23
52935;BME280;38802;50.198;19.796;2022-07-24T00:40:42;96335.70;;;18.13;83.27
52935;BME280;38802;50.198;19.796;2022-07-24T00:43:08;96338.84;;;18.13;83.36
52935;BME280;38802;50.198;19.796;2022-07-24T00:45:35;96345.58;;;18.13;82.99
52935;BME280;38802;50.198;19.796;2022-07-24T00:48:03;96342.23;;;18.13;83.41
52935;BME280;38802;50.198;19.796;2022-07-24T00:50:31;96342.97;;;18.11;83.75
52935;BME280;38802;50.198;19.796;2022-07-24T00:52:58;96344.98;;;18.09;83.61
52935;BME280;38802;50.198;19.796;2022-07-24T00:55:25;96350.14;;;18.07;83.51
52935;BME280;38802;50.198;19.796;2022-07-24T00:57:52;96350.86;;;18.05;83.86
52935;BME280;38802;50.198;19.796;2022-07-24T01:00:20;96348.94;;;18.02;83.82
52935;BME280;38802;50.198;19.796;2022-07-24T01:02:48;96349.24;;;17.99;83.93
52935;BME280;38802;50.198;19.796;2022-07-24T01:05:16;96346.58;;;17.96;83.73
52935;BME280;38802;50.198;19.796;2022-07-24T01:07:43;96348.17;;;17.95;83.73
52935;BME280;38802;50.198;19.796;2022-07-24T01:10:10;96345.84;;;17.92;83.95
52935;BME280;38802;50.198;19.796;2022-07-24T01:12:38;96340.64;;;17.89;83.98
52935;BME280;38802;50.198;19.796;2022-07-24T01:15:07;96341.17;;;17.88;84.67
52935;BME280;38802;50.198;19.796;2022-07-24T01:17:38;96346.45;;;17.84;84.59
52935;BME280;38802;50.198;19.796;2022-07-24T01:20:06;96343.06;;;17.82;84.35
52935;BME280;38802;50.198;19.796;2022-07-24T01:22:33;96348.61;;;17.79;84.79
52935;BME280;38802;50.198;19.796;2022-07-24T01:25:00;96346.35;;;17.77;85.18
52935;BME280;38802;50.198;19.796;2022-07-24T01:27:27;96346.25;;;17.75;85.44
52935;BME280;38802;50.198;19.796;2022-07-24T01:29:54;96345.55;;;17.73;85.30
52935;BME280;38802;50.198;19.796;2022-07-24T01:32:21;96344.90;;;17.71;85.31
52935;BME280;38802;50.198;19.796;2022-07-24T01:34:48;96344.55;;;17.70;85.55
52935;BME280;38802;50.198;19.796;2022-07-24T01:37:15;96346.70;;;17.69;85.91
52935;BME280;38802;50.198;19.796;2022-07-24T01:39:41;96347.41;;;17.68;85.55
52935;BME280;38802;50.198;19.796;2022-07-24T01:42:08;96346.48;;;17.68;86.17
52935;BME280;38802;50.198;19.796;2022-07-24T01:44:35;96346.10;;;17.65;85.66
52935;BME280;38802;50.198;19.796;2022-07-24T01:47:02;96345.70;;;17.64;85.67
52935;BME280;38802;50.198;19.796;2022-07-24T01:49:28;96345.68;;;17.63;86.01
52935;BME280;38802;50.198;19.796;2022-07-24T01:51:55;96342.13;;;17.61;86.28
52935;BME280;38802;50.198;19.796;2022-07-24T01:54:22;96344.34;;;17.58;86.21
52935;BME280;38802;50.198;19.796;2022-07-24T01:56:49;96342.70;;;17.56;86.34
52935;BME280;38802;50.198;19.796;2022-07-24T01:59:15;96341.02;;;17.55;87.04
52935;BME280;38802;50.198;19.796;2022-07-24T02:01:42;96346.13;;;17.52;86.71
52935;BME280;38802;50.198;19.796;2022-07-24T02:04:09;96348.40;;;17.48;86.31
52935;BME280;38802;50.198;19.796;2022-07-24T02:06:36;96351.02;;;17.47;86.42
52935;BME280;38802;50.198;19.796;2022-07-24T02:09:03;96350.74;;;17.45;86.52
52935;BME280;38802;50.198;19.796;2022-07-24T02:11:30;96353.22;;;17.43;86.30
52935;BME280;38802;50.198;19.796;2022-07-24T02:13:57;96353.18;;;17.43;86.52
52935;BME280;38802;50.198;19.796;2022-07-24T02:16:27;96352.69;;;17.41;86.58
52935;BME280;38802;50.198;19.796;2022-07-24T02:18:54;96349.40;;;17.39;86.47
52935;BME280;38802;50.198;19.796;2022-07-24T02:21:20;96348.77;;;17.37;86.71
52935;BME280;38802;50.198;19.796;2022-07-24T02:23:48;96352.27;;;17.32;86.57
52935;BME280;38802;50.198;19.796;2022-07-24T02:26:15;96353.36;;;17.28;86.40
52935;BME280;38802;50.198;19.796;2022-07-24T02:28:42;96359.71;;;17.26;86.43
52935;BME280;38802;50.198;19.796;2022-07-24T02:31:09;96356.72;;;17.23;86.75
52935;BME280;38802;50.198;19.796;2022-07-24T02:33:35;96359.95;;;17.19;86.67
52935;BME280;38802;50.198;19.796;2022-07-24T02:36:02;96362.55;;;17.17;86.96
52935;BME280;38802;50.198;19.796;2022-07-24T02:38:30;96361.98;;;17.12;86.86
52935;BME280;38802;50.198;19.796;2022-07-24T02:40:56;96365.11;;;17.08;86.52
52935;BME280;38802;50.198;19.796;2022-07-24T02:43:23;96366.36;;;17.04;87.00
52935;BME280;38802;50.198;19.796;2022-07-24T02:45:50;96370.34;;;17.00;86.71
52935;BME280;38802;50.198;19.796;2022-07-24T02:48:19;96366.31;;;16.95;86.58
52935;BME280;38802;50.198;19.796;2022-07-24T02:50:47;96372.34;;;16.90;86.46
52935;BME280;38802;50.198;19.796;2022-07-24T02:53:13;96379.03;;;16.87;86.66
52935;BME280;38802;50.198;19.796;2022-07-24T02:55:40;96382.39;;;16.82;86.98
52935;BME280;38802;50.198;19.796;2022-07-24T02:58:07;96384.02;;;16.76;86.88
52935;BME280;38802;50.198;19.796;2022-07-24T03:00:34;96388.91;;;16.72;86.81
52935;BME280;38802;50.198;19.796;2022-07-24T03:03:00;96389.70;;;16.66;86.60
52935;BME280;38802;50.198;19.796;2022-07-24T03:05:28;96397.34;;;16.61;86.73
52935;BME280;38802;50.198;19.796;2022-07-24T03:07:54;96400.35;;;16.57;86.38
52935;BME280;38802;50.198;19.796;2022-07-24T03:10:21;96402.31;;;16.54;86.39
52935;BME280;38802;50.198;19.796;2022-07-24T03:12:48;96401.08;;;16.50;86.41
52935;BME280;38802;50.198;19.796;2022-07-24T03:15:15;96405.48;;;16.47;86.13
52935;BME280;38802;50.198;19.796;2022-07-24T03:17:54;96409.05;;;16.44;86.02
52935;BME280;38802;50.198;19.796;2022-07-24T03:20:25;96414.08;;;16.42;86.10
52935;BME280;38802;50.198;19.796;2022-07-24T03:22:53;96419.89;;;16.40;86.09
52935;BME280;38802;50.198;19.796;2022-07-24T03:25:21;96422.11;;;16.39;85.88
52935;BME280;38802;50.198;19.796;2022-07-24T03:27:48;96424.80;;;16.38;85.91
52935;BME280;38802;50.198;19.796;2022-07-24T03:30:16;96425.33;;;16.36;86.24
52935;BME280;38802;50.198;19.796;2022-07-24T03:32:43;96427.78;;;16.34;86.02
52935;BME280;38802;50.198;19.796;2022-07-24T03:35:10;96432.13;;;16.35;86.40
52935;BME280;38802;50.198;19.796;2022-07-24T03:37:38;96432.38;;;16.32;86.14
52935;BME280;38802;50.198;19.796;2022-07-24T03:40:06;96430.27;;;16.32;85.90
52935;BME280;38802;50.198;19.796;2022-07-24T03:42:33;96430.83;;;16.32;85.93
52935;BME280;38802;50.198;19.796;2022-07-24T03:45:00;96433.20;;;16.31;85.94
52935;BME280;38802;50.198;19.796;2022-07-24T03:47:27;96434.34;;;16.29;85.96
52935;BME280;38802;50.198;19.796;2022-07-24T03:49:54;96435.41;;;16.27;85.91
52935;BME280;38802;50.198;19.796;2022-07-24T03:52:21;96438.45;;;16.25;85.85
52935;BME280;38802;50.198;19.796;2022-07-24T03:54:51;96440.67;;;16.22;85.91
52935;BME280;38802;50.198;19.796;2022-07-24T03:57:18;96439.02;;;16.19;86.22
52935;BME280;38802;50.198;19.796;2022-07-24T03:59:44;96444.33;;;16.17;85.84
52935;BME280;38802;50.198;19.796;2022-07-24T04:02:11;96449.05;;;16.15;86.14
52935;BME280;38802;50.198;19.796;2022-07-24T04:04:38;96453.19;;;16.13;85.73
52935;BME280;38802;50.198;19.796;2022-07-24T04:07:05;96452.89;;;16.12;85.87
52935;BME280;38802;50.198;19.796;2022-07-24T04:09:32;96456.50;;;16.13;85.78
52935;BME280;38802;50.198;19.796;2022-07-24T04:11:59;96459.42;;;16.13;85.78
52935;BME280;38802;50.198;19.796;2022-07-24T04:14:26;96460.61;;;16.14;85.76
52935;BME280;38802;50.198;19.796;2022-07-24T04:16:53;96463.11;;;16.13;85.68
52935;BME280;38802;50.198;19.796;2022-07-24T04:19:20;96465.41;;;16.15;85.79
52935;BME280;38802;50.198;19.796;2022-07-24T04:21:47;96470.42;;;16.17;85.92
52935;BME280;38802;50.198;19.796;2022-07-24T04:24:13;96470.73;;;16.19;86.07
52935;BME280;38802;50.198;19.796;2022-07-24T04:26:40;96471.44;;;16.21;85.75
52935;BME280;38802;50.198;19.796;2022-07-24T04:29:07;96475.50;;;16.24;85.64
52935;BME280;38802;50.198;19.796;2022-07-24T04:31:34;96479.21;;;16.25;85.56
52935;BME280;38802;50.198;19.796;2022-07-24T04:34:01;96481.27;;;16.26;85.49
52935;BME280;38802;50.198;19.796;2022-07-24T04:36:28;96487.70;;;16.26;85.48
52935;BME280;38802;50.198;19.796;2022-07-24T04:38:55;96486.14;;;16.28;85.82
52935;BME280;38802;50.198;19.796;2022-07-24T04:41:22;96492.28;;;16.28;85.48
52935;BME280;38802;50.198;19.796;2022-07-24T04:43:49;96497.35;;;16.30;85.83
52935;BME280;38802;50.198;19.796;2022-07-24T04:46:17;96497.59;;;16.31;85.63
52935;BME280;38802;50.198;19.796;2022-07-24T04:48:44;96492.50;;;16.33;85.86
52935;BME280;38802;50.198;19.796;2022-07-24T04:51:10;96496.98;;;16.37;85.73
52935;BME280;38802;50.198;19.796;2022-07-24T04:53:37;96500.04;;;16.41;85.78
52935;BME280;38802;50.198;19.796;2022-07-24T04:56:04;96500.86;;;16.45;86.03
52935;BME280;38802;50.198;19.796;2022-07-24T04:58:31;96498.44;;;16.49;85.70
52935;BME280;38802;50.198;19.796;2022-07-24T05:00:58;96500.18;;;16.54;85.45
52935;BME280;38802;50.198;19.796;2022-07-24T05:03:25;96501.03;;;16.61;85.59
52935;BME280;38802;50.198;19.796;2022-07-24T05:05:52;96505.77;;;16.68;85.26
52935;BME280;38802;50.198;19.796;2022-07-24T05:08:19;96506.14;;;16.78;85.24
52935;BME280;38802;50.198;19.796;2022-07-24T05:10:45;96506.15;;;16.88;85.26
52935;BME280;38802;50.198;19.796;2022-07-24T05:13:12;96504.04;;;16.99;84.90
52935;BME280;38802;50.198;19.796;2022-07-24T05:15:39;96503.84;;;17.12;84.89
52935;BME280;38802;50.198;19.796;2022-07-24T05:18:09;96502.04;;;17.26;84.51
52935;BME280;38802;50.198;19.796;2022-07-24T05:20:36;96503.15;;;17.39;84.36
52935;BME280;38802;50.198;19.796;2022-07-24T05:23:03;96504.02;;;17.52;83.76
52935;BME280;38802;50.198;19.796;2022-07-24T05:25:29;96505.23;;;17.64;83.31
52935;BME280;38802;50.198;19.796;2022-07-24T05:27:56;96505.90;;;17.79;83.31
52935;BME280;38802;50.198;19.796;2022-07-24T05:30:23;96507.16;;;17.94;82.06
52935;BME280;38802;50.198;19.796;2022-07-24T05:32:50;96504.38;;;18.05;81.99
52935;BME280;38802;50.198;19.796;2022-07-24T05:35:16;96502.70;;;18.20;81.97
52935;BME280;38802;50.198;19.796;2022-07-24T05:37:55;96502.85;;;18.36;81.02
52935;BME280;38802;50.198;19.796;2022-07-24T05:40:22;96506.46;;;18.55;81.11
52935;BME280;38802;50.198;19.796;2022-07-24T05:42:49;96506.72;;;18.73;80.66
52935;BME280;38802;50.198;19.796;2022-07-24T05:45:16;96506.01;;;18.89;80.07
52935;BME280;38802;50.198;19.796;2022-07-24T05:47:43;96506.77;;;19.04;79.02
52935;BME280;38802;50.198;19.796;2022-07-24T05:50:12;96509.67;;;19.21;79.12
52935;BME280;38802;50.198;19.796;2022-07-24T05:52:40;96512.45;;;19.38;78.70
52935;BME280;38802;50.198;19.796;2022-07-24T05:55:08;96512.42;;;19.49;77.56
52935;BME280;38802;50.198;19.796;2022-07-24T05:57:44;96511.73;;;19.56;76.33
52935;BME280;38802;50.198;19.796;2022-07-24T06:00:13;96512.98;;;19.66;76.10
52935;BME280;38802;50.198;19.796;2022-07-24T06:02:45;96511.62;;;19.81;76.44
52935;BME280;38802;50.198;19.796;2022-07-24T06:05:13;96510.10;;;19.94;76.09
52935;BME280;38802;50.198;19.796;2022-07-24T06:07:41;96511.96;;;20.10;76.25
52935;BME280;38802;50.198;19.796;2022-07-24T06:10:08;96510.29;;;20.27;74.63
52935;BME280;38802;50.198;19.796;2022-07-24T06:12:40;96508.23;;;20.44;74.76
52935;BME280;38802;50.198;19.796;2022-07-24T06:15:08;96509.19;;;20.54;74.04
52935;BME280;38802;50.198;19.796;2022-07-24T06:17:35;96508.05;;;20.62;72.09
52935;BME280;38802;50.198;19.796;2022-07-24T06:20:04;96515.98;;;20.73;72.21
52935;BME280;38802;50.198;19.796;2022-07-24T06:22:31;96517.23;;;20.81;71.35
52935;BME280;38802;50.198;19.796;2022-07-24T06:24:58;96516.54;;;20.91;71.77
52935;BME280;38802;50.198;19.796;2022-07-24T06:27:24;96519.95;;;21.04;70.83
52935;BME280;38802;50.198;19.796;2022-07-24T06:29:51;96523.11;;;21.13;69.57
52935;BME280;38802;50.198;19.796;2022-07-24T06:32:18;96521.73;;;21.23;70.36
52935;BME280;38802;50.198;19.796;2022-07-24T06:34:45;96523.13;;;21.32;68.87
52935;BME280;38802;50.198;19.796;2022-07-24T06:37:11;96523.14;;;21.48;69.48
52935;BME280;38802;50.198;19.796;2022-07-24T06:39:38;96526.23;;;21.58;67.86
52935;BME280;38802;50.198;19.796;2022-07-24T06:42:05;96526.40;;;21.58;67.20
52935;BME280;38802;50.198;19.796;2022-07-24T06:44:35;96528.45;;;21.68;67.98
52935;BME280;38802;50.198;19.796;2022-07-24T06:47:05;96527.44;;;21.78;66.22
52935;BME280;38802;50.198;19.796;2022-07-24T06:49:32;96526.06;;;21.87;67.34
52935;BME280;38802;50.198;19.796;2022-07-24T06:51:59;96527.34;;;21.97;66.62
52935;BME280;38802;50.198;19.796;2022-07-24T06:54:26;96527.36;;;22.00;66.67
52935;BME280;38802;50.198;19.796;2022-07-24T06:56:52;96529.03;;;22.03;65.43
52935;BME280;38802;50.198;19.796;2022-07-24T06:59:19;96527.17;;;22.11;64.39
52935;BME280;38802;50.198;19.796;2022-07-24T07:01:46;96526.30;;;22.02;64.61
52935;BME280;38802;50.198;19.796;2022-07-24T07:04:13;96528.64;;;22.04;64.59
52935;BME280;38802;50.198;19.796;2022-07-24T07:06:40;96530.54;;;21.95;63.80
52935;BME280;38802;50.198;19.796;2022-07-24T07:09:11;96538.66;;;21.81;63.62
52935;BME280;38802;50.198;19.796;2022-07-24T07:11:37;96537.65;;;21.78;62.79
52935;BME280;38802;50.198;19.796;2022-07-24T07:14:04;96537.72;;;21.64;62.39
52935;BME280;38802;50.198;19.796;2022-07-24T07:16:31;96540.83;;;21.42;60.89
52935;BME280;38802;50.198;19.796;2022-07-24T07:18:58;96542.83;;;21.39;61.97
52935;BME280;38802;50.198;19.796;2022-07-24T07:21:25;96538.70;;;21.53;61.90
52935;BME280;38802;50.198;19.796;2022-07-24T07:23:52;96541.30;;;21.59;61.29
52935;BME280;38802;50.198;19.796;2022-07-24T07:26:19;96544.31;;;21.73;61.28
52935;BME280;38802;50.198;19.796;2022-07-24T07:28:47;96544.87;;;21.91;60.84
52935;BME280;38802;50.198;19.796;2022-07-24T07:31:13;96544.34;;;22.10;60.70
52935;BME280;38802;50.198;19.796;2022-07-24T07:33:41;96545.91;;;22.33;60.93
52935;BME280;38802;50.198;19.796;2022-07-24T07:36:07;96541.00;;;22.49;60.80
52935;BME280;38802;50.198;19.796;2022-07-24T07:38:35;96544.10;;;22.54;60.44
52935;BME280;38802;50.198;19.796;2022-07-24T07:41:04;96548.02;;;22.52;59.86
52935;BME280;38802;50.198;19.796;2022-07-24T07:43:31;96555.64;;;22.40;58.97
52935;BME280;38802;50.198;19.796;2022-07-24T07:45:58;96557.20;;;22.13;58.54
52935;BME280;38802;50.198;19.796;2022-07-24T07:48:25;96555.88;;;22.11;58.59
52935;BME280;38802;50.198;19.796;2022-07-24T07:50:53;96552.32;;;22.28;58.77
52935;BME280;38802;50.198;19.796;2022-07-24T07:53:20;96549.70;;;22.52;58.29
52935;BME280;38802;50.198;19.796;2022-07-24T07:55:46;96553.67;;;22.58;57.77
52935;BME280;38802;50.198;19.796;2022-07-24T07:58:20;96560.83;;;22.35;57.42
52935;BME280;38802;50.198;19.796;2022-07-24T08:00:49;96559.55;;;22.33;57.59
52935;BME280;38802;50.198;19.796;2022-07-24T08:03:16;96555.50;;;22.42;57.73
52935;BME280;38802;50.198;19.796;2022-07-24T08:05:49;96549.81;;;22.60;58.01
52935;BME280;38802;50.198;19.796;2022-07-24T08:08:24;96550.92;;;22.82;56.41
52935;BME280;38802;50.198;19.796;2022-07-24T08:10:53;96550.17;;;22.98;56.10
52935;BME280;38802;50.198;19.796;2022-07-24T08:13:19;96557.05;;;23.14;55.86
52935;BME280;38802;50.198;19.796;2022-07-24T08:15:48;96557.83;;;23.22;56.29
52935;BME280;38802;50.198;19.796;2022-07-24T08:18:15;96554.23;;;23.04;55.60
52935;BME280;38802;50.198;19.796;2022-07-24T08:20:42;96555.69;;;23.01;56.27
52935;BME280;38802;50.198;19.796;2022-07-24T08:23:12;96557.23;;;23.19;56.12
52935;BME280;38802;50.198;19.796;2022-07-24T08:25:39;96560.16;;;23.38;54.96
52935;BME280;38802;50.198;19.796;2022-07-24T08:28:06;96560.36;;;23.50;55.16
52935;BME280;38802;50.198;19.796;2022-07-24T08:30:32;96564.38;;;23.63;55.15
52935;BME280;38802;50.198;19.796;2022-07-24T08:32:59;96560.32;;;23.72;55.12
52935;BME280;38802;50.198;19.796;2022-07-24T08:35:26;96560.95;;;23.81;54.26
52935;BME280;38802;50.198;19.796;2022-07-24T08:37:59;96563.58;;;23.82;53.57
52935;BME280;38802;50.198;19.796;2022-07-24T08:40:33;96566.72;;;23.86;52.42
52935;BME280;38802;50.198;19.796;2022-07-24T08:43:02;96569.40;;;23.88;53.11
52935;BME280;38802;50.198;19.796;2022-07-24T08:45:29;96566.05;;;23.97;53.19
52935;BME280;38802;50.198;19.796;2022-07-24T08:47:58;96568.23;;;24.01;52.24
52935;BME280;38802;50.198;19.796;2022-07-24T08:50:26;96571.94;;;23.82;51.47
52935;BME280;38802;50.198;19.796;2022-07-24T08:52:53;96571.92;;;23.50;51.87
52935;BME280;38802;50.198;19.796;2022-07-24T08:55:20;96568.90;;;23.28;52.74
52935;BME280;38802;50.198;19.796;2022-07-24T08:57:47;96570.16;;;23.16;52.90
52935;BME280;38802;50.198;19.796;2022-07-24T09:00:14;96567.80;;;22.97;52.85
52935;BME280;38802;50.198;19.796;2022-07-24T09:02:41;96574.90;;;22.75;53.08
52935;BME280;38802;50.198;19.796;2022-07-24T09:05:08;96578.15;;;22.53;53.63
52935;BME280;38802;50.198;19.796;2022-07-24T09:07:36;96579.50;;;22.45;53.85
52935;BME280;38802;50.198;19.796;2022-07-24T09:10:07;96581.98;;;22.61;53.97
52935;BME280;38802;50.198;19.796;2022-07-24T09:12:38;96574.45;;;22.81;54.13
52935;BME280;38802;50.198;19.796;2022-07-24T09:15:18;96569.27;;;23.05;53.93
52935;BME280;38802;50.198;19.796;2022-07-24T09:17:53;96572.66;;;23.26;53.13
52935;BME280;38802;50.198;19.796;2022-07-24T09:20:23;96573.23;;;23.42;53.03
52935;BME280;38802;50.198;19.796;2022-07-24T09:22:51;96579.14;;;23.56;53.10
52935;BME280;38802;50.198;19.796;2022-07-24T09:25:22;96579.00;;;23.62;53.35
52935;BME280;38802;50.198;19.796;2022-07-24T09:28:00;96581.38;;;23.75;53.03
52935;BME280;38802;50.198;19.796;2022-07-24T09:31:00;96580.76;;;23.76;51.83
52935;BME280;38802;50.198;19.796;2022-07-24T09:33:35;96580.05;;;23.74;51.50
52935;BME280;38802;50.198;19.796;2022-07-24T09:36:15;96581.02;;;23.59;51.97
52935;BME280;38802;50.198;19.796;2022-07-24T09:38:51;96585.02;;;23.43;52.16
52935;BME280;38802;50.198;19.796;2022-07-24T09:41:22;96582.80;;;23.23;52.05
52935;BME280;38802;50.198;19.796;2022-07-24T09:44:00;96580.23;;;23.10;52.24
52935;BME280;38802;50.198;19.796;2022-07-24T09:46:28;96577.56;;;23.15;52.23
52935;BME280;38802;50.198;19.796;2022-07-24T09:48:58;96576.06;;;23.27;52.04
52935;BME280;38802;50.198;19.796;2022-07-24T09:51:27;96572.30;;;23.29;51.65
52935;BME280;38802;50.198;19.796;2022-07-24T09:53:56;96574.17;;;23.36;50.79
52935;BME280;38802;50.198;19.796;2022-07-24T09:56:24;96572.67;;;23.44;50.52
52935;BME280;38802;50.198;19.796;2022-07-24T09:58:57;96569.96;;;23.57;50.78
52935;BME280;38802;50.198;19.796;2022-07-24T10:01:27;96566.35;;;23.76;50.60
52935;BME280;38802;50.198;19.796;2022-07-24T10:03:56;96568.22;;;23.94;49.99
52935;BME280;38802;50.198;19.796;2022-07-24T10:06:24;96569.12;;;23.93;49.79
52935;BME280;38802;50.198;19.796;2022-07-24T10:08:53;96568.12;;;23.86;49.76
52935;BME280;38802;50.198;19.796;2022-07-24T10:11:21;96562.45;;;23.94;49.80
52935;BME280;38802;50.198;19.796;2022-07-24T10:13:48;96557.94;;;23.97;48.99
52935;BME280;38802;50.198;19.796;2022-07-24T10:16:25;96565.14;;;23.94;49.24
52935;BME280;38802;50.198;19.796;2022-07-24T10:21:32;96564.10;;;24.08;49.39
52935;BME280;38802;50.198;19.796;2022-07-24T10:24:33;96561.94;;;24.16;49.65
52935;BME280;38802;50.198;19.796;2022-07-24T10:27:23;96555.65;;;24.33;49.77
52935;BME280;38802;50.198;19.796;2022-07-24T10:29:52;96555.70;;;24.48;49.58
52935;BME280;38802;50.198;19.796;2022-07-24T10:32:21;96554.80;;;24.49;49.20
52935;BME280;38802;50.198;19.796;2022-07-24T10:37:43;96546.55;;;24.53;48.89
52935;BME280;38802;50.198;19.796;2022-07-24T10:40:24;96553.02;;;24.34;48.71
52935;BME280;38802;50.198;19.796;2022-07-24T10:45:36;96553.11;;;24.01;48.65
52935;BME280;38802;50.198;19.796;2022-07-24T10:58:53;96555.70;;;23.30;49.37
52935;BME280;38802;50.198;19.796;2022-07-24T11:01:47;96557.78;;;23.19;49.61
52935;BME280;38802;50.198;19.796;2022-07-24T11:06:47;96551.28;;;23.04;50.43
52935;BME280;38802;50.198;19.796;2022-07-24T11:09:16;96548.92;;;23.15;50.72
52935;BME280;38802;50.198;19.796;2022-07-24T11:14:27;96544.15;;;23.43;50.92
52935;BME280;38802;50.198;19.796;2022-07-24T11:17:41;96543.83;;;23.59;50.83
52935;BME280;38802;50.198;19.796;2022-07-24T11:20:14;96539.80;;;23.66;50.93
52935;BME280;38802;50.198;19.796;2022-07-24T11:22:43;96538.69;;;23.54;50.67
52935;BME280;38802;50.198;19.796;2022-07-24T11:27:54;96530.49;;;23.43;50.27
52935;BME280;38802;50.198;19.796;2022-07-24T11:30:27;96528.30;;;23.48;50.51
52935;BME280;38802;50.198;19.796;2022-07-24T11:32:54;96530.31;;;23.56;50.30
52935;BME280;38802;50.198;19.796;2022-07-24T11:35:32;96525.91;;;23.63;49.73
52935;BME280;38802;50.198;19.796;2022-07-24T11:38:00;96524.87;;;23.70;49.83
52935;BME280;38802;50.198;19.796;2022-07-24T11:40:28;96527.95;;;23.79;49.24
52935;BME280;38802;50.198;19.796;2022-07-24T11:42:57;96525.71;;;23.90;49.28
52935;BME280;38802;50.198;19.796;2022-07-24T11:45:26;96528.38;;;23.99;48.94
52935;BME280;38802;50.198;19.796;2022-07-24T11:47:54;96520.15;;;24.05;48.18
52935;BME280;38802;50.198;19.796;2022-07-24T11:50:26;96519.95;;;24.01;47.96
52935;BME280;38802;50.198;19.796;2022-07-24T11:52:53;96518.67;;;24.05;48.17
52935;BME280;38802;50.198;19.796;2022-07-24T11:55:23;96521.75;;;24.11;48.02
52935;BME280;38802;50.198;19.796;2022-07-24T11:57:55;96522.04;;;24.13;47.67
52935;BME280;38802;50.198;19.796;2022-07-24T12:00:42;96522.20;;;24.15;47.95
52935;BME280;38802;50.198;19.796;2022-07-24T12:03:09;96522.11;;;24.07;47.68
52935;BME280;38802;50.198;19.796;2022-07-24T12:05:37;96525.55;;;23.96;47.63
52935;BME280;38802;50.198;19.796;2022-07-24T12:08:16;96523.95;;;23.98;48.00
52935;BME280;38802;50.198;19.796;2022-07-24T12:10:45;96517.23;;;24.00;47.62
52935;BME280;38802;50.198;19.796;2022-07-24T12:13:12;96514.62;;;24.02;47.36
52935;BME280;38802;50.198;19.796;2022-07-24T12:15:39;96515.98;;;24.07;47.34
52935;BME280;38802;50.198;19.796;2022-07-24T12:18:08;96510.61;;;24.12;46.95
52935;BME280;38802;50.198;19.796;2022-07-24T12:20:43;96514.13;;;24.17;46.65
52935;BME280;38802;50.198;19.796;2022-07-24T12:23:14;96512.52;;;24.17;46.63
52935;BME280;38802;50.198;19.796;2022-07-24T12:25:43;96513.07;;;24.17;46.98
52935;BME280;38802;50.198;19.796;2022-07-24T12:28:19;96510.66;;;24.25;46.60
52935;BME280;38802;50.198;19.796;2022-07-24T12:30:54;96508.73;;;24.37;46.79
52935;BME280;38802;50.198;19.796;2022-07-24T12:33:27;96511.35;;;24.48;46.74
52935;BME280;38802;50.198;19.796;2022-07-24T12:41:05;96507.23;;;24.59;46.60
52935;BME280;38802;50.198;19.796;2022-07-24T12:43:56;96504.33;;;24.56;46.35
52935;BME280;38802;50.198;19.796;2022-07-24T12:46:35;96511.59;;;24.50;46.01
52935;BME280;38802;50.198;19.796;2022-07-24T12:51:55;96510.05;;;24.39;45.58
52935;BME280;38802;50.198;19.796;2022-07-24T12:57:12;96514.18;;;24.40;45.59
52935;BME280;38802;50.198;19.796;2022-07-24T12:59:44;96509.23;;;24.42;44.80
52935;BME280;38802;50.198;19.796;2022-07-24T13:02:22;96508.94;;;24.38;44.40
52935;BME280;38802;50.198;19.796;2022-07-24T13:04:55;96509.07;;;24.36;44.31
52935;BME280;38802;50.198;19.796;2022-07-24T13:07:25;96509.55;;;24.37;45.02
52935;BME280;38802;50.198;19.796;2022-07-24T13:09:53;96507.83;;;24.41;44.92
52935;BME280;38802;50.198;19.796;2022-07-24T13:12:20;96507.22;;;24.42;44.84
52935;BME280;38802;50.198;19.796;2022-07-24T13:14:48;96506.23;;;24.35;44.80
52935;BME280;38802;50.198;19.796;2022-07-24T13:17:18;96506.04;;;24.27;44.07
52935;BME280;38802;50.198;19.796;2022-07-24T13:19:48;96504.88;;;24.22;44.63
52935;BME280;38802;50.198;19.796;2022-07-24T13:22:16;96498.56;;;24.24;44.68
52935;BME280;38802;50.198;19.796;2022-07-24T13:24:43;96498.02;;;24.23;44.43
52935;BME280;38802;50.198;19.796;2022-07-24T13:27:11;96499.17;;;24.22;44.17
52935;BME280;38802;50.198;19.796;2022-07-24T13:29:43;96499.59;;;24.21;44.19
52935;BME280;38802;50.198;19.796;2022-07-24T13:32:10;96499.42;;;24.20;44.28
52935;BME280;38802;50.198;19.796;2022-07-24T13:34:37;96499.76;;;24.22;44.43
52935;BME280;38802;50.198;19.796;2022-07-24T13:37:05;96497.59;;;24.23;44.17